Time;durP1;ratioP1;P1;durP2;ratioP2;P2;SDS_P1;SDS_P2;PMS_P1;PMS_P2;Temp;Humidity;BMP_temperature;BMP_pressure;BME280_temperature;BME280_humidity;BME280_pressure;Samples;Min_cycle;Max_cycle;Signal;HPM_P1;HPM_P2
2023/04/04 00:01:48;;;;;;;;;;;;;;;;;;5052357;28;20000;-76
2023/04/04 00:04:51;;;;;;;;;;;;;;;;;;5052680;28;20055;-77
2023/04/04 00:07:54;;;;;;;;;;;;;;;;;;5040092;28;20024;-77
2023/04/04 00:10:58;;;;;;;;;;;;;;;;;;5051855;28;19923;-77
2023/04/04 00:14:01;;;;;;;;;;;;;;;;;;5052554;28;20017;-77
2023/04/04 00:17:04;;;;;;;;;;;;;;;;;;5051319;28;19924;-77
2023/04/04 00:20:08;;;;;;;;;;;;;;;;;;5051174;28;20031;-77
2023/04/04 00:23:11;;;;;;;;;;;;;;;;;;5052397;28;19934;-77
2023/04/04 00:26:13;;;;;;;;;;;;;;;;;;5052124;28;20464;-77
2023/04/04 00:29:16;;;;;;;;;;;;;;;;;;5051839;28;19978;-77
2023/04/04 00:32:19;;;;;;;;;;;;;;;;;;5052352;28;20473;-77
2023/04/04 00:35:23;;;;;;;;;;;;;;;;;;5052366;28;19967;-78
2023/04/04 00:38:28;;;;;;;;;;;;;;;;;;5040030;28;19924;-78
2023/04/04 00:41:31;;;;;;;;;;;;;;;;;;5052019;28;20400;-77
2023/04/04 00:44:35;;;;;;;;;;;;;;;;;;5039648;28;19967;-77
2023/04/04 00:47:38;;;;;;;;;;;;;;;;;;5052032;28;19924;-77
2023/04/04 00:50:40;;;;;;;;;;;;;;;;;;5046730;28;20017;-77
2023/04/04 00:53:43;;;;;;;;;;;;;;;;;;5052313;28;19959;-77
2023/04/04 00:56:46;;;;;;;;;;;;;;;;;;5049213;28;20352;-79
2023/04/04 00:59:49;;;;;;;;;;;;;;;;;;5076092;28;20547;-79
2023/04/04 01:02:52;;;;;;;;;;;;;;;;;;5063279;28;20000;-79
2023/04/04 01:05:55;;;;;;;;;;;;;;;;;;5075717;28;19958;-79
2023/04/04 01:08:58;;;;;;;;;;;;;;;;;;5051262;28;19989;-79
2023/04/04 01:12:01;;;;;;;;;;;;;;;;;;5063523;28;19974;-78
2023/04/04 01:15:09;;;;;;;;;;;;;;;;;;5063341;28;19923;-79
2023/04/04 01:18:12;;;;;;;;;;;;;;;;;;5062272;28;20388;-79
2023/04/04 01:21:16;;;;;;;;;;;;;;;;;;5061547;28;20206;-79
2023/04/04 01:24:19;;;;;;;;;;;;;;;;;;5075604;28;19923;-79
2023/04/04 01:27:34;;;;;;;;;;;;;;;;;;5063426;28;19920;-79
2023/04/04 01:30:43;;;;;;;;;;;;;;;;;;5063385;28;19920;-79
2023/04/04 01:33:46;;;;;;;;;;;;;;;;;;5062723;28;19920;-79
2023/04/04 01:36:49;;;;;;;;;;;;;;;;;;5063207;28;20009;-79
2023/04/04 01:39:52;;;;;;;;;;;;;;;;;;5062912;28;19934;-79
2023/04/04 01:42:55;;;;;;;;;;;;;;;;;;5061193;28;19970;-79
2023/04/04 01:45:59;;;;;;;;;;;;;;;;;;5062569;28;19971;-79
2023/04/04 01:49:03;;;;;;;;;;;;;;;;;;5062458;28;20395;-78
2023/04/04 01:52:09;;;;;;;;;;;;;;;;;;5062366;28;20030;-77
2023/04/04 01:55:12;;;;;;;;;;;;;;;;;;5062241;28;20311;-77
2023/04/04 01:58:15;;;;;;;;;;;;;;;;;;5074848;28;19928;-78
2023/04/04 02:01:18;;;;;;;;;;;;;;;;;;5062707;28;20292;-78
2023/04/04 02:04:21;;;;;;;;;;;;;;;;;;5075045;28;19920;-78
2023/04/04 02:07:24;;;;;;;;;;;;;;;;;;5074614;28;19966;-78
2023/04/04 02:10:28;;;;;;;;;;;;;;;;;;5062371;28;20029;-78
2023/04/04 02:13:31;;;;;;;;;;;;;;;;;;5062117;28;19955;-78
2023/04/04 02:16:35;;;;;;;;;;;;;;;;;;5062060;28;19982;-78
2023/04/04 02:19:38;;;;;;;;;;;;;;;;;;5062389;28;19918;-78
2023/04/04 02:22:41;;;;;;;;;;;;;;;;;;5060981;28;20064;-78
2023/04/04 02:25:44;;;;;;;;;;;;;;;;;;5062171;28;19954;-78
2023/04/04 02:28:47;;;;;;;;;;;;;;;;;;5061699;28;19924;-78
2023/04/04 02:31:50;;;;;;;;;;;;;;;;;;5072880;28;20403;-78
2023/04/04 02:34:56;;;;;;;;;;;;;;;;;;5073508;28;20378;-79
2023/04/04 02:38:17;;;;;;;;;;;;;;;;;;5061938;28;20447;-78
2023/04/04 02:41:42;;;;;;;;;;;;;;;;;;5073057;28;20008;-78
2023/04/04 02:44:59;;;;;;;;;;;;;;;;;;5059939;28;19973;-78
2023/04/04 02:48:02;;;;;;;;;;;;;;;;;;5060104;28;19924;-79
2023/04/04 02:51:21;;;;;;;;;;;;;;;;;;5060106;28;19958;-79
2023/04/04 02:54:45;;;;;;;;;;;;;;;;;;5063927;28;19966;-79
2023/04/04 02:57:57;;;;;;;;;;;;;;;;;;5060850;28;19936;-78
2023/04/04 03:01:00;;;;;;;;;;;;;;;;;;5073655;28;19938;-79
2023/04/04 03:04:06;;;;;;;;;;;;;;;;;;5061260;28;20423;-80
2023/04/04 03:07:11;;;;;;;;;;;;;;;;;;5049886;28;19923;-79
2023/04/04 03:10:14;;;;;;;;;;;;;;;;;;5060476;28;19923;-79
2023/04/04 03:13:17;;;;;;;;;;;;;;;;;;5060302;28;19927;-79
2023/04/04 03:16:22;;;;;;;;;;;;;;;;;;5061069;28;19997;-79
2023/04/04 03:19:27;;;;;;;;;;;;;;;;;;5049922;28;20007;-79
2023/04/04 03:22:30;;;;;;;;;;;;;;;;;;5073787;28;19981;-79
2023/04/04 03:25:36;;;;;;;;;;;;;;;;;;5060805;28;19939;-78
2023/04/04 03:28:39;;;;;;;;;;;;;;;;;;5073141;28;19923;-78
2023/04/04 03:31:42;;;;;;;;;;;;;;;;;;5060723;28;19923;-78
2023/04/04 03:34:44;;;;;;;;;;;;;;;;;;5071466;28;19920;-79
2023/04/04 03:37:47;;;;;;;;;;;;;;;;;;5071906;28;19918;-78
2023/04/04 03:40:51;;;;;;;;;;;;;;;;;;5072650;28;20433;-78
2023/04/04 03:43:53;;;;;;;;;;;;;;;;;;5072901;28;19923;-78
2023/04/04 03:46:56;;;;;;;;;;;;;;;;;;5071274;28;19966;-79
2023/04/04 03:50:00;;;;;;;;;;;;;;;;;;5060347;28;19923;-80
2023/04/04 03:53:03;;;;;;;;;;;;;;;;;;5060237;28;19982;-80
2023/04/04 03:56:06;;;;;;;;;;;;;;;;;;5059251;28;19970;-80
2023/04/04 03:59:08;;;;;;;;;;;;;;;;;;5072390;28;20371;-80
2023/04/04 04:02:12;;;;;;;;;;;;;;;;;;5060344;28;19958;-80
2023/04/04 04:05:15;;;;;;;;;;;;;;;;;;5072747;28;20011;-80
2023/04/04 04:08:18;;;;;;;;;;;;;;;;;;5060053;28;20064;-79
2023/04/04 04:11:21;;;;;;;;;;;;;;;;;;5059124;28;19958;-79
2023/04/04 04:14:24;;;;;;;;;;;;;;;;;;5071823;28;20315;-79
2023/04/04 04:17:27;;;;;;;;;;;;;;;;;;5059751;28;19920;-80
2023/04/04 04:20:30;;;;;;;;;;;;;;;;;;5059706;28;19920;-79
2023/04/04 04:23:33;;;;;;;;;;;;;;;;;;5072139;28;19927;-79
2023/04/04 04:26:36;;;;;;;;;;;;;;;;;;5056412;28;20006;-79
2023/04/04 04:29:39;;;;;;;;;;;;;;;;;;5057515;28;19924;-80
2023/04/04 04:32:42;;;;;;;;;;;;;;;;;;5049517;28;19931;-79
2023/04/04 04:35:46;;;;;;;;;;;;;;;;;;5060381;28;19962;-79
2023/04/04 04:38:49;;;;;;;;;;;;;;;;;;5048499;28;19920;-79
2023/04/04 04:41:52;;;;;;;;;;;;;;;;;;5059892;28;19966;-79
2023/04/04 04:44:57;;;;;;;;;;;;;;;;;;5072918;28;19920;-78
2023/04/04 04:48:04;;;;;;;;;;;;;;;;;;5059962;28;20053;-79
2023/04/04 04:51:09;;;;;;;;;;;;;;;;;;5058767;28;19919;-82
2023/04/04 04:54:23;;;;;;;;;;;;;;;;;;5059167;28;19919;-75
2023/04/04 04:57:33;;;;;;;;;;;;;;;;;;5059260;28;19926;-76
2023/04/04 05:00:40;;;;;;;;;;;;;;;;;;5048380;28;20433;-80
2023/04/04 05:03:43;;;;;;;;;;;;;;;;;;5059323;28;19943;-78
2023/04/04 05:06:49;;;;;;;;;;;;;;;;;;5059794;28;19923;-80
2023/04/04 05:09:52;;;;;;;;;;;;;;;;;;5059785;28;19992;-80
2023/04/04 05:12:58;;;;;;;;;;;;;;;;;;5059733;28;19923;-79
2023/04/04 05:16:04;;;;;;;;;;;;;;;;;;5060091;28;19927;-80
2023/04/04 05:19:09;;;;;;;;;;;;;;;;;;5060262;28;19935;-80
2023/04/04 05:22:23;;;;;;;;;;;;;;;;;;5060172;28;19920;-79
2023/04/04 05:25:33;;;;;;;;;;;;;;;;;;5072804;28;19962;-80
2023/04/04 05:28:36;;;;;;;;;;;;;;;;;;5059536;28;19922;-79
2023/04/04 05:31:42;;;;;;;;;;;;;;;;;;5059031;28;20017;-78
2023/04/04 05:34:51;;;;;;;;;;;;;;;;;;5057985;28;19959;-78
2023/04/04 05:37:57;;;;;;;;;;;;;;;;;;5059504;28;19965;-78
2023/04/04 05:41:00;;;;;;;;;;;;;;;;;;5061122;28;19971;-76
2023/04/04 05:44:03;;;;;;;;;;;;;;;;;;5051332;28;19939;-76
2023/04/04 05:47:06;;;;;;;;;;;;;;;;;;5075293;28;19939;-80
2023/04/04 05:50:09;;;;;;;;;;;;;;;;;;5062889;28;20327;-77
2023/04/04 05:53:14;;;;;;;;;;;;;;;;;;5062974;28;19967;-79
2023/04/04 05:56:20;;;;;;;;;;;;;;;;;;5062717;28;20410;-73
2023/04/04 05:59:23;;;;;;;;;;;;;;;;;;5062589;28;19927;-75
2023/04/04 06:02:31;;;;;;;;;;;;;;;;;;5060973;28;19959;-79
2023/04/04 06:05:41;;;;;;;;;;;;;;;;;;5061538;28;21593;-77
2023/04/04 06:08:44;;;;;;;;;;;;;;;;;;5062848;28;19971;-76
2023/04/04 06:11:50;;;;;;;;;;;;;;;;;;5074817;28;19966;-77
2023/04/04 06:14:59;;;;;;;;;;;;;;;;;;5063249;28;19919;-77
2023/04/04 06:18:02;;;;;;;;;;;;;;;;;;5062722;28;20057;-77
2023/04/04 06:21:05;;;;;;;;;;;;;;;;;;5062537;28;19958;-78
2023/04/04 06:24:09;;;;;;;;;;;;;;;;;;5062992;28;19967;-77
2023/04/04 06:27:13;;;;;;;;;;;;;;;;;;5062863;28;20025;-75
2023/04/04 06:30:17;;;;;;;;;;;;;;;;;;5075272;28;19923;-76
2023/04/04 06:33:27;;;;;;;;;;;;;;;;;;5062620;28;20384;-76
2023/04/04 06:36:31;;;;;;;;;;;;;;;;;;5074586;28;19998;-75
2023/04/04 06:39:37;;;;;;;;;;;;;;;;;;5062325;28;19919;-76
2023/04/04 06:42:49;;;;;;;;;;;;;;;;;;5062290;28;20015;-75
2023/04/04 06:45:56;;;;;;;;;;;;;;;;;;5074661;28;19988;-78
2023/04/04 06:48:59;;;;;;;;;;;;;;;;;;5074642;28;19923;-77
2023/04/04 06:52:07;;;;;;;;;;;;;;;;;;5073631;28;19920;-78
2023/04/04 06:55:12;;;;;;;;;;;;;;;;;;5062525;28;19958;-77
2023/04/04 06:58:15;;;;;;;;;;;;;;;;;;5061760;28;20299;-75
2023/04/04 07:01:18;;;;;;;;;;;;;;;;;;5074219;28;19976;-75
2023/04/04 07:04:28;;;;;;;;;;;;;;;;;;5073704;28;19957;-76
2023/04/04 07:07:35;;;;;;;;;;;;;;;;;;5073951;28;20422;-75
2023/04/04 07:10:38;;;;;;;;;;;;;;;;;;5073963;28;19957;-74
2023/04/04 07:13:41;;;;;;;;;;;;;;;;;;5073911;28;20379;-74
2023/04/04 07:16:44;;;;;;;;;;;;;;;;;;5056694;28;19958;-74
2023/04/04 07:19:48;;;;;;;;;;;;;;;;;;5073843;28;19974;-77
2023/04/04 07:22:51;;;;;;;;;;;;;;;;;;5073640;28;20008;-73
2023/04/04 07:25:53;;;;;;;;;;;;;;;;;;5073564;28;19919;-73
2023/04/04 07:28:57;;;;;;;;;;;;;;;;;;5061309;28;20387;-74
2023/04/04 07:32:01;;;;;;;;;;;;;;;;;;5073712;28;19959;-80
2023/04/04 07:35:06;;;;;;;;;;;;;;;;;;5073566;28;19922;-79
2023/04/04 07:38:09;;;;;;;;;;;;;;;;;;5060953;28;19920;-77
2023/04/04 07:41:18;;;;;;;;;;;;;;;;;;5073687;28;19919;-76
2023/04/04 07:44:27;;;;;;;;;;;;;;;;;;5072877;28;19994;-76
2023/04/04 07:47:34;;;;;;;;;;;;;;;;;;5073575;28;20288;-75
2023/04/04 07:50:40;;;;;;;;;;;;;;;;;;5073090;28;20383;-79
2023/04/04 07:53:46;;;;;;;;;;;;;;;;;;5061447;28;20342;-78
2023/04/04 07:56:50;;;;;;;;;;;;;;;;;;5073214;28;20288;-78
2023/04/04 07:59:53;;;;;;;;;;;;;;;;;;5060585;28;19966;-77
2023/04/04 08:02:57;;;;;;;;;;;;;;;;;;5072732;28;20055;-78
2023/04/04 08:06:00;;;;;;;;;;;;;;;;;;5072710;28;19923;-78
2023/04/04 08:09:03;;;;;;;;;;;;;;;;;;5072956;28;19975;-79
2023/04/04 08:12:07;;;;;;;;;;;;;;;;;;5073240;28;20438;-77
2023/04/04 08:15:10;;;;;;;;;;;;;;;;;;5072698;28;19924;-76
2023/04/04 08:18:14;;;;;;;;;;;;;;;;;;5072622;28;19982;-78
2023/04/04 08:21:18;;;;;;;;;;;;;;;;;;5072747;28;19997;-78
2023/04/04 08:24:21;;;;;;;;;;;;;;;;;;5072431;28;20336;-81
2023/04/04 08:27:25;;;;;;;;;;;;;;;;;;5072829;28;19919;-79
2023/04/04 08:30:27;;;;;;;;;;;;;;;;;;5072576;28;19923;-77
2023/04/04 08:33:30;;;;;;;;;;;;;;;;;;5072405;28;20015;-79
2023/04/04 08:36:33;;;;;;;;;;;;;;;;;;5060334;28;20321;-74
2023/04/04 08:39:36;;;;;;;;;;;;;;;;;;5072468;28;20354;-75
2023/04/04 08:42:39;;;;;;;;;;;;;;;;;;5072909;28;19968;-76
2023/04/04 08:45:43;;;;;;;;;;;;;;;;;;5072853;28;20444;-76
2023/04/04 08:48:47;;;;;;;;;;;;;;;;;;5072368;28;20051;-75
2023/04/04 08:51:51;;;;;;;;;;;;;;;;;;5072687;28;20371;-76
2023/04/04 08:54:54;;;;;;;;;;;;;;;;;;5072287;28;19918;-75
2023/04/04 08:57:57;;;;;;;;;;;;;;;;;;5072139;28;19986;-73
2023/04/04 09:01:00;;;;;;;;;;;;;;;;;;5060042;28;19923;-75
2023/04/04 09:04:03;;;;;;;;;;;;;;;;;;5072280;28;19966;-76
2023/04/04 09:07:06;;;;;;;;;;;;;;;;;;5072223;28;20292;-75
2023/04/04 09:10:10;;;;;;;;;;;;;;;;;;5072015;28;20395;-76
2023/04/04 09:13:13;;;;;;;;;;;;;;;;;;5072026;28;20360;-76
2023/04/04 09:16:16;;;;;;;;;;;;;;;;;;5074621;28;19919;-77
2023/04/04 09:19:19;;;;;;;;;;;;;;;;;;5075944;28;19970;-76
2023/04/04 09:22:22;;;;;;;;;;;;;;;;;;5075817;28;19951;-77
2023/04/04 09:25:25;;;;;;;;;;;;;;;;;;5075894;28;19939;-81
2023/04/04 09:28:28;;;;;;;;;;;;;;;;;;5075883;28;20434;-75
2023/04/04 09:31:31;;;;;;;;;;;;;;;;;;5075726;28;19919;-76
2023/04/04 09:34:34;;;;;;;;;;;;;;;;;;5075748;28;20408;-74
2023/04/04 09:37:37;;;;;;;;;;;;;;;;;;5075944;28;20327;-82
2023/04/04 09:40:40;;;;;;;;;;;;;;;;;;5075974;28;19920;-71
2023/04/04 09:43:43;;;;;;;;;;;;;;;;;;5063408;28;19920;-73
2023/04/04 09:46:46;;;;;;;;;;;;;;;;;;5076239;28;19922;-77
2023/04/04 09:49:52;;;;;;;;;;;;;;;;;;5074360;28;19924;-76
2023/04/04 09:52:56;;;;;;;;;;;;;;;;;;5075559;28;19938;-78
2023/04/04 09:55:59;;;;;;;;;;;;;;;;;;5075595;28;19959;-77
2023/04/04 09:59:02;;;;;;;;;;;;;;;;;;5075098;28;19928;-75
2023/04/04 10:02:05;;;;;;;;;;;;;;;;;;5075101;28;19958;-74
2023/04/04 10:05:09;;;;;;;;;;;;;;;;;;5075123;28;20012;-73
2023/04/04 10:08:12;;;;;;;;;;;;;;;;;;5075031;28;19923;-73
2023/04/04 10:11:15;;;;;;;;;;;;;;;;;;5074999;28;19920;-73
2023/04/04 10:14:18;;;;;;;;;;;;;;;;;;5074795;28;19919;-73
2023/04/04 10:17:22;;;;;;;;;;;;;;;;;;5074857;28;20288;-72
2023/04/04 10:20:25;;;;;;;;;;;;;;;;;;5074773;28;19923;-74
2023/04/04 10:23:27;;;;;;;;;;;;;;;;;;5074786;28;19919;-73
2023/04/04 10:26:30;;;;;;;;;;;;;;;;;;5074621;28;19919;-74
2023/04/04 10:29:33;;;;;;;;;;;;;;;;;;5074614;28;20001;-72
2023/04/04 10:32:36;;;;;;;;;;;;;;;;;;5074645;28;19963;-72
2023/04/04 10:35:40;;;;;;;;;;;;;;;;;;5074920;28;20013;-73
2023/04/04 10:38:43;;;;;;;;;;;;;;;;;;5074480;28;19966;-72
2023/04/04 10:41:46;;;;;;;;;;;;;;;;;;5073927;28;19939;-72
2023/04/04 10:44:49;;;;;;;;;;;;;;;;;;5074389;28;19959;-72
2023/04/04 10:47:52;;;;;;;;;;;;;;;;;;5074240;28;20287;-72
2023/04/04 10:50:55;;;;;;;;;;;;;;;;;;5062160;28;20391;-73
2023/04/04 10:53:58;;;;;;;;;;;;;;;;;;5062103;28;19958;-72
2023/04/04 10:57:02;;;;;;;;;;;;;;;;;;5073761;28;19928;-73
2023/04/04 11:00:09;;;;;;;;;;;;;;;;;;5074152;28;20133;-73
2023/04/04 11:03:13;;;;;;;;;;;;;;;;;;5074088;28;20379;-73
2023/04/04 11:09:45;;;;;;;;;;;;;;;;;;5059684;28;19963;-73
2023/04/04 11:12:48;;;;;;;;;;;;;;;;;;5073032;28;19918;-72
2023/04/04 11:15:53;;;;;;;;;;;;;;;;;;5072762;28;19935;-72
2023/04/04 11:18:56;;;;;;;;;;;;;;;;;;5072785;28;19966;-73
2023/04/04 11:21:59;;;;;;;;;;;;;;;;;;5072824;28;20363;-72
2023/04/04 11:25:05;;;;;;;;;;;;;;;;;;5073908;28;19919;-73
2023/04/04 11:28:13;;;;;;;;;;;;;;;;;;5073545;28;20942;-73
2023/04/04 11:31:16;;;;;;;;;;;;;;;;;;5073191;28;19935;-74
2023/04/04 11:34:19;;;;;;;;;;;;;;;;;;5073653;28;19960;-74
2023/04/04 11:37:23;;;;;;;;;;;;;;;;;;5073287;28;19981;-74
2023/04/04 11:40:26;;;;;;;;;;;;;;;;;;5073218;28;19919;-74
2023/04/04 11:43:29;;;;;;;;;;;;;;;;;;5073118;28;20280;-73
2023/04/04 11:46:32;;;;;;;;;;;;;;;;;;5073403;28;20053;-74
2023/04/04 11:49:36;;;;;;;;;;;;;;;;;;5073054;28;19923;-74
2023/04/04 11:52:42;;;;;;;;;;;;;;;;;;5072997;28;19930;-73
2023/04/04 11:55:46;;;;;;;;;;;;;;;;;;5072641;28;19919;-73
2023/04/04 11:58:49;;;;;;;;;;;;;;;;;;5051878;28;19943;-73
2023/04/04 12:01:52;;;;;;;;;;;;;;;;;;5052852;28;19935;-73
2023/04/04 12:04:55;;;;;;;;;;;;;;;;;;5053094;28;19928;-73
2023/04/04 12:07:59;;;;;;;;;;;;;;;;;;5051417;28;19967;-73
2023/04/04 12:11:02;;;;;;;;;;;;;;;;;;5050777;28;20297;-73
2023/04/04 12:14:06;;;;;;;;;;;;;;;;;;5050691;28;19919;-73
2023/04/04 12:17:09;;;;;;;;;;;;;;;;;;5050675;28;19920;-73
2023/04/04 12:20:12;;;;;;;;;;;;;;;;;;5050609;28;19970;-73
2023/04/04 12:23:16;;;;;;;;;;;;;;;;;;5051684;28;19975;-71
2023/04/04 12:26:18;;;;;;;;;;;;;;;;;;5052124;28;19920;-74
2023/04/04 12:29:21;;;;;;;;;;;;;;;;;;5052355;28;20296;-74
2023/04/04 12:32:24;;;;;;;;;;;;;;;;;;5052077;28;20376;-74
2023/04/04 12:35:27;;;;;;;;;;;;;;;;;;5052334;28;19923;-73
2023/04/04 12:38:30;;;;;;;;;;;;;;;;;;5052414;28;19920;-72
2023/04/04 12:41:35;;;;;;;;;;;;;;;;;;5040148;28;20439;-75
2023/04/04 12:48:03;;;;;;;;;;;;;;;;;;5039868;28;20368;-73
2023/04/04 12:51:07;;;;;;;;;;;;;;;;;;5054251;28;20014;-74
2023/04/04 12:54:10;;;;;;;;;;;;;;;;;;5056466;28;19928;-77
2023/04/04 12:57:13;;;;;;;;;;;;;;;;;;5065259;28;20341;-75
2023/04/04 13:00:17;;;;;;;;;;;;;;;;;;5076251;28;19922;-76
2023/04/04 13:03:21;;;;;;;;;;;;;;;;;;5076350;28;19963;-73
2023/04/04 13:06:24;;;;;;;;;;;;;;;;;;5076262;28;20343;-73
2023/04/04 13:09:27;;;;;;;;;;;;;;;;;;5076024;28;19994;-71
2023/04/04 13:12:30;;;;;;;;;;;;;;;;;;5076280;28;19919;-73
2023/04/04 13:15:33;;;;;;;;;;;;;;;;;;5075954;28;19934;-73
2023/04/04 13:18:36;;;;;;;;;;;;;;;;;;5076341;28;20031;-73
2023/04/04 13:21:40;;;;;;;;;;;;;;;;;;5075324;28;20132;-72
2023/04/04 13:24:42;;;;;;;;;;;;;;;;;;5075775;28;19935;-73
2023/04/04 13:27:46;;;;;;;;;;;;;;;;;;5075673;28;19923;-72
2023/04/04 13:30:49;;;;;;;;;;;;;;;;;;5075947;28;20329;-75
2023/04/04 13:33:51;;;;;;;;;;;;;;;;;;5075813;28;19919;-75
2023/04/04 13:36:55;;;;;;;;;;;;;;;;;;5075904;28;19927;-73
2023/04/04 13:39:58;;;;;;;;;;;;;;;;;;5075576;28;19919;-76
2023/04/04 13:43:01;;;;;;;;;;;;;;;;;;5075465;28;20003;-73
2023/04/04 13:46:04;;;;;;;;;;;;;;;;;;5075406;28;19979;-74
2023/04/04 13:49:09;;;;;;;;;;;;;;;;;;5075323;28;20029;-74
2023/04/04 13:52:13;;;;;;;;;;;;;;;;;;5075457;28;19920;-73
2023/04/04 13:55:16;;;;;;;;;;;;;;;;;;5075271;28;19970;-74
2023/04/04 13:58:19;;;;;;;;;;;;;;;;;;5074951;28;20490;-75
2023/04/04 14:01:22;;;;;;;;;;;;;;;;;;5074646;28;19920;-75
2023/04/04 14:04:26;;;;;;;;;;;;;;;;;;5063038;28;20276;-75
2023/04/04 14:07:29;;;;;;;;;;;;;;;;;;5075185;28;19919;-76
2023/04/04 14:10:32;;;;;;;;;;;;;;;;;;5074993;28;20007;-76
2023/04/04 14:13:35;;;;;;;;;;;;;;;;;;5074931;28;20292;-76
2023/04/04 14:16:38;;;;;;;;;;;;;;;;;;5074872;28;19923;-76
2023/04/04 14:19:41;;;;;;;;;;;;;;;;;;5074807;28;20018;-75
2023/04/04 14:22:44;;;;;;;;;;;;;;;;;;5075086;28;20382;-75
2023/04/04 14:25:49;;;;;;;;;;;;;;;;;;5074174;28;19927;-76
2023/04/04 14:28:52;;;;;;;;;;;;;;;;;;5074719;28;20018;-76
2023/04/04 14:31:55;;;;;;;;;;;;;;;;;;5074652;28;19919;-76
2023/04/04 14:34:59;;;;;;;;;;;;;;;;;;5074476;28;19920;-76
2023/04/04 14:38:02;;;;;;;;;;;;;;;;;;5074777;28;19920;-75
2023/04/04 14:41:05;;;;;;;;;;;;;;;;;;5074188;28;19983;-75
2023/04/04 14:44:08;;;;;;;;;;;;;;;;;;5074280;28;19927;-75
2023/04/04 14:47:12;;;;;;;;;;;;;;;;;;5074309;28;19923;-75
2023/04/04 14:50:16;;;;;;;;;;;;;;;;;;5073497;28;20142;-75
2023/04/04 14:53:20;;;;;;;;;;;;;;;;;;5072799;28;19920;-75
2023/04/04 14:56:24;;;;;;;;;;;;;;;;;;5073518;28;19935;-75
2023/04/04 14:59:27;;;;;;;;;;;;;;;;;;5074406;28;19971;-75
2023/04/04 15:03:13;;;;;;;;;;;;;;;;;;5073500;28;20300;-74
2023/04/04 15:06:22;;;;;;;;;;;;;;;;;;5072078;28;19923;-74
2023/04/04 15:09:25;;;;;;;;;;;;;;;;;;5070322;28;19931;-75
2023/04/04 15:12:28;;;;;;;;;;;;;;;;;;5072030;28;19982;-75
2023/04/04 15:15:31;;;;;;;;;;;;;;;;;;5072380;28;20292;-75
2023/04/04 15:18:36;;;;;;;;;;;;;;;;;;5069491;28;19948;-75
2023/04/04 15:21:39;;;;;;;;;;;;;;;;;;5067272;28;19967;-74
2023/04/04 15:24:43;;;;;;;;;;;;;;;;;;5072650;28;19918;-75
2023/04/04 15:27:46;;;;;;;;;;;;;;;;;;5073381;28;20050;-76
2023/04/04 15:30:49;;;;;;;;;;;;;;;;;;5073140;28;20248;-75
2023/04/04 15:33:54;;;;;;;;;;;;;;;;;;5071054;28;19923;-75
2023/04/04 15:36:58;;;;;;;;;;;;;;;;;;5059494;28;20379;-75
2023/04/04 15:40:01;;;;;;;;;;;;;;;;;;5059815;28;20264;-74
2023/04/04 15:43:04;;;;;;;;;;;;;;;;;;5073180;28;19920;-75
2023/04/04 15:46:07;;;;;;;;;;;;;;;;;;5073188;28;20036;-78
2023/04/04 15:49:10;;;;;;;;;;;;;;;;;;5072838;28;20438;-76
2023/04/04 15:52:13;;;;;;;;;;;;;;;;;;5072284;28;19967;-77
2023/04/04 15:55:17;;;;;;;;;;;;;;;;;;5072909;28;20307;-81
2023/04/04 15:58:20;;;;;;;;;;;;;;;;;;5060122;28;20392;-74
2023/04/04 16:01:23;;;;;;;;;;;;;;;;;;5065737;28;19966;-77
2023/04/04 16:04:26;;;;;;;;;;;;;;;;;;5073179;28;19962;-76
2023/04/04 16:07:30;;;;;;;;;;;;;;;;;;5073190;28;19939;-76
2023/04/04 16:10:35;;;;;;;;;;;;;;;;;;5072601;28;19924;-76
2023/04/04 16:13:39;;;;;;;;;;;;;;;;;;5065039;28;19919;-76
2023/04/04 16:16:42;;;;;;;;;;;;;;;;;;5072004;28;19935;-76
2023/04/04 16:19:45;;;;;;;;;;;;;;;;;;5072738;28;19958;-76
2023/04/04 16:22:48;;;;;;;;;;;;;;;;;;5072477;28;19924;-75
2023/04/04 16:25:51;;;;;;;;;;;;;;;;;;5072295;28;19920;-76
2023/04/04 16:28:54;;;;;;;;;;;;;;;;;;5072314;28;19962;-77
2023/04/04 16:31:57;;;;;;;;;;;;;;;;;;5072376;28;19920;-77
2023/04/04 16:35:00;;;;;;;;;;;;;;;;;;5072567;28;20065;-76
2023/04/04 16:38:07;;;;;;;;;;;;;;;;;;5072506;28;20288;-77
2023/04/04 16:41:10;;;;;;;;;;;;;;;;;;5072409;28;19977;-76
2023/04/04 16:44:14;;;;;;;;;;;;;;;;;;5072183;28;19919;-77
2023/04/04 16:47:17;;;;;;;;;;;;;;;;;;5072249;28;19919;-77
2023/04/04 16:50:20;;;;;;;;;;;;;;;;;;5071715;28;20070;-77
2023/04/04 16:53:24;;;;;;;;;;;;;;;;;;5072032;28;19919;-77
2023/04/04 16:56:27;;;;;;;;;;;;;;;;;;5071247;28;19974;-77
2023/04/04 16:59:30;;;;;;;;;;;;;;;;;;5070637;28;19920;-77
2023/04/04 17:02:33;;;;;;;;;;;;;;;;;;5071474;28;20475;-77
2023/04/04 17:05:35;;;;;;;;;;;;;;;;;;5071697;28;20391;-74
2023/04/04 17:08:41;;;;;;;;;;;;;;;;;;5071529;28;19985;-76
2023/04/04 17:11:45;;;;;;;;;;;;;;;;;;5072447;28;19923;-75
2023/04/04 17:14:49;;;;;;;;;;;;;;;;;;5072506;28;19920;-75
2023/04/04 17:17:52;;;;;;;;;;;;;;;;;;5072508;28;19935;-75
2023/04/04 17:20:55;;;;;;;;;;;;;;;;;;5072133;28;19920;-77
2023/04/04 17:23:59;;;;;;;;;;;;;;;;;;5072518;28;19920;-76
2023/04/04 17:27:02;;;;;;;;;;;;;;;;;;5072043;28;19919;-75
2023/04/04 17:30:08;;;;;;;;;;;;;;;;;;5072117;28;20003;-76
2023/04/04 17:33:11;;;;;;;;;;;;;;;;;;5071937;28;19935;-73
2023/04/04 17:36:14;;;;;;;;;;;;;;;;;;5072723;28;19919;-72
2023/04/04 17:39:17;;;;;;;;;;;;;;;;;;5075736;28;20411;-76
2023/04/04 17:42:20;;;;;;;;;;;;;;;;;;5075949;28;19958;-74
2023/04/04 17:45:23;;;;;;;;;;;;;;;;;;5075602;28;20006;-75
2023/04/04 17:48:28;;;;;;;;;;;;;;;;;;5074908;28;20446;-75
2023/04/04 17:51:31;;;;;;;;;;;;;;;;;;5074301;28;19958;-74
2023/04/04 17:54:35;;;;;;;;;;;;;;;;;;5075241;28;19918;-73
2023/04/04 17:57:39;;;;;;;;;;;;;;;;;;5074600;28;19973;-74
2023/04/04 18:00:42;;;;;;;;;;;;;;;;;;5075111;28;19966;-74
2023/04/04 18:03:46;;;;;;;;;;;;;;;;;;5075199;28;19973;-74
2023/04/04 18:06:49;;;;;;;;;;;;;;;;;;5075221;28;20008;-74
2023/04/04 18:09:52;;;;;;;;;;;;;;;;;;5074956;28;20436;-74
2023/04/04 18:12:55;;;;;;;;;;;;;;;;;;5074910;28;19919;-76
2023/04/04 18:16:01;;;;;;;;;;;;;;;;;;5074898;28;20406;-75
2023/04/04 18:19:04;;;;;;;;;;;;;;;;;;5074900;28;19966;-75
2023/04/04 18:22:08;;;;;;;;;;;;;;;;;;5075002;28;19923;-75
2023/04/04 18:25:11;;;;;;;;;;;;;;;;;;5075188;28;19920;-74
2023/04/04 18:28:15;;;;;;;;;;;;;;;;;;5074937;28;19941;-74
2023/04/04 18:31:19;;;;;;;;;;;;;;;;;;5074794;28;19959;-75
2023/04/04 18:34:23;;;;;;;;;;;;;;;;;;5062490;28;19981;-74
2023/04/04 18:37:27;;;;;;;;;;;;;;;;;;5074757;28;19986;-74
2023/04/04 18:40:30;;;;;;;;;;;;;;;;;;5062321;28;19979;-73
2023/04/04 18:43:36;;;;;;;;;;;;;;;;;;5074392;28;19920;-75
2023/04/04 18:46:39;;;;;;;;;;;;;;;;;;5074511;28;19920;-74
2023/04/04 18:49:46;;;;;;;;;;;;;;;;;;5074040;28;19923;-73
2023/04/04 18:52:55;;;;;;;;;;;;;;;;;;5074380;28;19919;-79
2023/04/04 18:56:29;;;;;;;;;;;;;;;;;;5074339;28;19966;-79
2023/04/04 18:59:33;;;;;;;;;;;;;;;;;;5062000;28;20213;-77
2023/04/04 19:02:37;;;;;;;;;;;;;;;;;;5074111;28;19923;-76
2023/04/04 19:05:41;;;;;;;;;;;;;;;;;;5074122;28;20364;-77
2023/04/04 19:08:44;;;;;;;;;;;;;;;;;;5074049;28;20020;-77
2023/04/04 19:11:48;;;;;;;;;;;;;;;;;;5073870;28;20035;-76
2023/04/04 19:14:52;;;;;;;;;;;;;;;;;;5073855;28;19966;-77
2023/04/04 19:17:55;;;;;;;;;;;;;;;;;;5073741;28;19966;-76
2023/04/04 19:20:58;;;;;;;;;;;;;;;;;;5073592;28;19920;-77
2023/04/04 19:24:01;;;;;;;;;;;;;;;;;;5073550;28;19919;-76
2023/04/04 19:27:04;;;;;;;;;;;;;;;;;;5073473;28;19958;-77
2023/04/04 19:30:07;;;;;;;;;;;;;;;;;;5073424;28;19938;-77
2023/04/04 19:33:10;;;;;;;;;;;;;;;;;;5061484;28;19919;-75
2023/04/04 19:36:13;;;;;;;;;;;;;;;;;;5073714;28;20008;-74
2023/04/04 19:39:16;;;;;;;;;;;;;;;;;;5061181;28;20063;-75
2023/04/04 19:42:21;;;;;;;;;;;;;;;;;;5060300;28;19919;-75
2023/04/04 19:45:24;;;;;;;;;;;;;;;;;;5073106;28;20007;-74
2023/04/04 19:48:27;;;;;;;;;;;;;;;;;;5073187;28;20429;-76
2023/04/04 19:51:30;;;;;;;;;;;;;;;;;;5073105;28;19923;-76
2023/04/04 19:54:36;;;;;;;;;;;;;;;;;;5073031;28;20003;-77
2023/04/04 19:57:39;;;;;;;;;;;;;;;;;;5072935;28;19927;-77
2023/04/04 20:00:41;;;;;;;;;;;;;;;;;;5072656;28;19919;-77
2023/04/04 20:03:45;;;;;;;;;;;;;;;;;;5073057;28;20327;-77
2023/04/04 20:06:48;;;;;;;;;;;;;;;;;;5072886;28;19920;-77
2023/04/04 20:09:50;;;;;;;;;;;;;;;;;;5072829;28;20395;-76
2023/04/04 20:12:54;;;;;;;;;;;;;;;;;;5072780;28;19938;-77
2023/04/04 20:15:57;;;;;;;;;;;;;;;;;;5072695;28;20350;-77
2023/04/04 20:19:00;;;;;;;;;;;;;;;;;;5072695;28;19962;-77
2023/04/04 20:22:02;;;;;;;;;;;;;;;;;;5072793;28;20284;-77
2023/04/04 20:25:05;;;;;;;;;;;;;;;;;;5072590;28;19920;-77
2023/04/04 20:28:08;;;;;;;;;;;;;;;;;;5072536;28;19920;-77
2023/04/04 20:31:11;;;;;;;;;;;;;;;;;;5072508;28;19919;-76
2023/04/04 20:34:14;;;;;;;;;;;;;;;;;;5072384;28;19919;-76
2023/04/04 20:37:25;;;;;;;;;;;;;;;;;;5072838;28;19958;-77
2023/04/04 20:40:27;;;;;;;;;;;;;;;;;;5072215;28;19920;-76
2023/04/04 20:43:30;;;;;;;;;;;;;;;;;;5072388;28;20299;-76
2023/04/04 20:46:33;;;;;;;;;;;;;;;;;;5072472;28;19919;-77
2023/04/04 20:49:36;;;;;;;;;;;;;;;;;;5072350;28;19931;-77
2023/04/04 20:52:39;;;;;;;;;;;;;;;;;;5072381;28;19920;-77
2023/04/04 20:55:42;;;;;;;;;;;;;;;;;;5072020;28;19919;-77
2023/04/04 20:58:45;;;;;;;;;;;;;;;;;;5062519;28;19950;-77
2023/04/04 21:01:48;;;;;;;;;;;;;;;;;;5072180;28;19920;-77
2023/04/04 21:04:51;;;;;;;;;;;;;;;;;;5072164;28;20334;-77